Time;durP1;ratioP1;P1;durP2;ratioP2;P2;SDS_P1;SDS_P2;PMS_P1;PMS_P2;Temp;Humidity;BMP_temperature;BMP_pressure;BME280_temperature;BME280_humidity;BME280_pressure;Samples;Min_cycle;Max_cycle;Signal;HPM_P1;HPM_P2
2022/06/14 00:01:24;;;;;;;4.78;1.85;;;13.00;91.50;;;;;;5032628;28;20037;-72
2022/06/14 00:03:50;;;;;;;4.35;1.98;;;12.90;91.80;;;;;;5032948;28;20026;-71
2022/06/14 00:06:20;;;;;;;4.15;2.67;;;12.80;92.10;;;;;;5032404;28;20033;-72
2022/06/14 00:08:47;;;;;;;2.95;1.88;;;12.70;92.50;;;;;;5031933;28;20398;-71
2022/06/14 00:11:20;;;;;;;3.58;1.83;;;12.60;92.80;;;;;;5032212;28;20053;-72
2022/06/14 00:13:47;;;;;;;6.00;1.65;;;12.60;93.40;;;;;;5044366;28;20053;-71
2022/06/14 00:16:14;;;;;;;4.65;2.08;;;12.50;93.60;;;;;;5032411;28;20037;-72
2022/06/14 00:18:41;;;;;;;7.43;2.67;;;12.40;93.90;;;;;;5031734;28;20033;-72
2022/06/14 00:21:07;;;;;;;4.22;2.03;;;12.40;94.50;;;;;;5052415;28;20390;-71
2022/06/14 00:23:34;;;;;;;3.33;2.00;;;12.30;94.50;;;;;;5038011;28;20037;-72
2022/06/14 00:26:02;;;;;;;6.00;2.53;;;12.20;94.80;;;;;;5049242;28;20401;-72
2022/06/14 00:28:30;;;;;;;8.07;2.72;;;12.20;95.00;;;;;;5031959;28;20036;-73
2022/06/14 00:31:00;;;;;;;5.38;2.00;;;12.20;95.50;;;;;;5041273;28;20041;-72
2022/06/14 00:33:27;;;;;;;3.50;2.20;;;12.10;95.70;;;;;;5033307;28;20041;-72
2022/06/14 00:35:58;;;;;;;5.25;2.75;;;12.10;96.10;;;;;;5046474;28;20036;-72
2022/06/14 00:38:25;;;;;;;5.75;2.88;;;12.10;96.50;;;;;;5040559;28;20025;-72
2022/06/14 00:40:57;;;;;;;6.82;2.17;;;12.00;96.70;;;;;;5049960;28;20044;-71
2022/06/14 00:43:25;;;;;;;3.47;2.10;;;11.90;97.30;;;;;;5032079;28;20044;-71
2022/06/14 00:45:52;;;;;;;5.03;2.42;;;11.80;98.00;;;;;;5032266;28;20032;-72
2022/06/14 00:48:28;;;;;;;5.85;3.10;;;11.80;98.80;;;;;;5031005;28;20030;-72
2022/06/14 00:51:00;;;;;;;5.35;2.60;;;11.90;98.20;;;;;;5031723;28;20040;-72
2022/06/14 00:53:40;;;;;;;4.28;2.25;;;11.80;98.40;;;;;;5030372;28;20041;-72
2022/06/14 00:56:13;;;;;;;6.73;3.07;;;11.60;98.80;;;;;;5042599;28;20025;-72
2022/06/14 00:58:45;;;;;;;4.78;2.55;;;11.40;99.50;;;;;;5031321;28;20033;-71
2022/06/14 01:01:20;;;;;;;4.45;1.88;;;11.40;99.90;;;;;;5032169;28;20048;-71
2022/06/14 01:03:54;;;;;;;3.88;2.17;;;11.30;99.90;;;;;;5031461;28;20037;-71
2022/06/14 01:06:30;;;;;;;6.57;2.58;;;11.20;99.90;;;;;;5046492;28;20038;-71
2022/06/14 01:09:09;;;;;;;4.65;2.70;;;11.10;99.90;;;;;;5031921;28;20042;-72
2022/06/14 01:11:47;;;;;;;7.22;3.03;;;11.00;99.90;;;;;;5030452;28;20057;-72
2022/06/14 01:14:18;;;;;;;4.00;2.30;;;10.90;99.90;;;;;;5031639;28;20048;-72
2022/06/14 01:16:44;;;;;;;5.22;2.85;;;11.00;99.90;;;;;;5031513;28;20370;-71
2022/06/14 01:19:23;;;;;;;4.82;2.80;;;11.00;99.90;;;;;;5044224;28;20028;-73
2022/06/14 01:21:52;;;;;;;4.00;2.63;;;11.00;99.90;;;;;;5032116;28;20049;-72
2022/06/14 01:24:21;;;;;;;3.72;2.53;;;11.00;99.90;;;;;;5050935;28;20037;-72
2022/06/14 01:26:48;;;;;;;5.00;2.70;;;10.90;99.90;;;;;;5035352;28;20045;-73
2022/06/14 01:29:16;;;;;;;5.45;2.83;;;11.00;99.90;;;;;;5035497;28;20040;-71
2022/06/14 01:31:43;;;;;;;3.08;2.55;;;11.00;99.90;;;;;;5034760;28;20046;-72
2022/06/14 01:34:10;;;;;;;6.45;3.33;;;10.90;99.90;;;;;;5055203;28;20041;-72
2022/06/14 01:36:39;;;;;;;4.30;2.58;;;10.90;99.90;;;;;;5035536;28;20029;-71
2022/06/14 01:39:08;;;;;;;3.13;2.58;;;10.80;99.90;;;;;;5039398;28;20518;-72
2022/06/14 01:41:53;;;;;;;6.70;2.75;;;10.70;99.90;;;;;;5050891;28;20041;-72
2022/06/14 01:44:37;;;;;;;4.10;2.55;;;10.60;99.90;;;;;;5035458;28;20025;-72
2022/06/14 01:47:20;;;;;;;6.47;2.95;;;10.60;99.90;;;;;;5035459;28;20034;-72
2022/06/14 01:52:55;;;;;;;4.88;3.25;;;10.50;99.90;;;;;;5046301;28;20030;-73
2022/06/14 01:55:47;;;;;;;7.70;3.22;;;10.50;99.90;;;;;;5035060;28;20030;-73
2022/06/14 01:58:32;;;;;;;7.70;2.92;;;10.70;99.90;;;;;;5040330;28;20032;-73
2022/06/14 02:01:18;;;;;;;6.25;3.33;;;10.60;99.90;;;;;;5038088;28;20383;-71
2022/06/14 02:04:38;;;;;;;7.47;3.13;;;10.50;99.90;;;;;;5034381;28;20025;-71
2022/06/14 02:07:25;;;;;;;7.22;3.47;;;10.20;99.90;;;;;;5034822;28;20140;-72
2022/06/14 02:10:02;;;;;;;4.95;2.90;;;10.00;99.90;;;;;;5034196;28;20041;-72
2022/06/14 02:12:56;;;;;;;6.25;3.30;;;10.20;99.90;;;;;;5034417;28;20036;-74
2022/06/14 02:15:37;;;;;;;4.97;2.90;;;10.20;99.90;;;;;;5048247;28;20030;-73
2022/06/14 02:18:31;;;;;;;6.90;2.78;;;10.10;99.90;;;;;;5041849;28;20489;-73
2022/06/14 02:21:10;;;;;;;5.97;3.33;;;10.00;99.90;;;;;;5034483;28;20391;-72
2022/06/14 02:23:46;;;;;;;5.25;3.30;;;10.00;99.90;;;;;;5052054;28;20037;-72
2022/06/14 02:26:23;;;;;;;8.73;5.07;;;9.90;99.90;;;;;;5037120;28;20029;-73
2022/06/14 02:29:13;;;;;;;4.50;3.50;;;9.70;99.90;;;;;;5034003;28;20048;-74
2022/06/14 02:32:02;;;;;;;7.70;3.13;;;9.80;99.90;;;;;;5034270;28;20462;-73
2022/06/14 02:34:32;;;;;;;6.22;3.83;;;9.90;99.90;;;;;;5033455;28;20493;-72
2022/06/14 02:37:04;;;;;;;5.75;3.42;;;9.90;99.90;;;;;;5048958;28;20037;-73
2022/06/14 02:39:35;;;;;;;3.72;3.33;;;9.90;99.90;;;;;;5033681;28;20501;-73
2022/06/14 02:42:05;;;;;;;5.32;3.15;;;10.00;99.90;;;;;;5044309;28;20041;-73
2022/06/14 02:44:41;;;;;;;5.97;4.57;;;9.80;99.90;;;;;;5039661;28;20040;-73
2022/06/14 02:47:17;;;;;;;5.45;3.40;;;9.60;99.90;;;;;;5051832;28;20033;-72
2022/06/14 02:50:02;;;;;;;5.68;4.15;;;9.40;99.90;;;;;;5051280;28;20418;-72
2022/06/14 02:52:39;;;;;;;5.90;3.28;;;9.30;99.90;;;;;;5034039;28;20034;-74
2022/06/14 02:55:23;;;;;;;7.28;3.55;;;9.30;99.90;;;;;;5032858;28;20041;-73
2022/06/14 02:58:01;;;;;;;6.88;4.28;;;9.20;99.90;;;;;;5053188;28;20052;-73
2022/06/14 03:00:58;;;;;;;9.43;4.50;;;9.30;99.90;;;;;;5035362;28;20029;-72
2022/06/14 03:03:38;;;;;;;6.22;3.80;;;9.40;99.90;;;;;;5032357;28;20049;-73
2022/06/14 03:06:24;;;;;;;4.88;3.40;;;9.60;99.90;;;;;;5033728;28;20029;-72
2022/06/14 03:09:05;;;;;;;5.90;4.50;;;9.50;99.90;;;;;;5031654;28;20048;-72
2022/06/14 03:11:31;;;;;;;8.60;3.92;;;9.20;99.90;;;;;;5043553;28;20037;-73
2022/06/14 03:14:10;;;;;;;7.95;3.92;;;9.10;99.90;;;;;;5034014;28;20054;-72
2022/06/14 03:17:06;;;;;;;7.10;4.32;;;9.00;99.90;;;;;;5033156;28;20029;-73
2022/06/14 03:19:49;;;;;;;6.03;3.60;;;9.00;99.90;;;;;;5033196;28;20049;-73
2022/06/14 03:22:41;;;;;;;5.47;3.80;;;9.00;99.90;;;;;;5040660;28;20120;-73
2022/06/14 03:25:14;;;;;;;8.02;4.50;;;9.10;99.90;;;;;;5033150;28;20052;-72
2022/06/14 03:27:47;;;;;;;7.07;4.28;;;9.20;99.90;;;;;;5044224;28;20041;-72
2022/06/14 03:30:31;;;;;;;4.15;3.45;;;9.30;99.90;;;;;;5039310;28;20033;-72
2022/06/14 03:33:03;;;;;;;5.35;4.03;;;9.20;99.90;;;;;;5033473;28;20033;-72
2022/06/14 03:35:38;;;;;;;7.43;4.30;;;9.00;99.90;;;;;;5036703;28;20355;-74
2022/06/14 03:38:12;;;;;;;6.70;4.65;;;8.90;99.90;;;;;;5049051;28;20037;-72
2022/06/14 03:40:42;;;;;;;6.90;3.90;;;9.00;99.90;;;;;;5033291;28;20048;-72
2022/06/14 03:43:08;;;;;;;4.97;4.20;;;9.00;99.90;;;;;;5041196;28;20041;-72
2022/06/14 03:45:47;;;;;;;7.80;4.57;;;9.00;99.90;;;;;;5044979;28;20048;-72
2022/06/14 03:48:14;;;;;;;6.05;4.10;;;9.00;99.90;;;;;;5033450;28;20033;-72
2022/06/14 03:51:11;;;;;;;12.05;3.83;;;9.10;99.90;;;;;;5031122;28;20036;-72
2022/06/14 03:53:59;;;;;;;7.13;4.13;;;9.20;99.90;;;;;;5032400;28;20471;-72
2022/06/14 03:56:37;;;;;;;6.60;4.20;;;9.20;99.90;;;;;;5033257;28;20057;-72
2022/06/14 03:59:13;;;;;;;8.00;3.63;;;9.10;99.90;;;;;;5032740;28;20033;-72
2022/06/14 04:01:49;;;;;;;3.58;2.97;;;9.30;99.90;;;;;;5032258;28;20045;-72
2022/06/14 04:04:24;;;;;;;5.43;3.20;;;9.40;99.90;;;;;;5032496;28;20041;-72
2022/06/14 04:07:17;;;;;;;5.53;3.50;;;9.40;99.90;;;;;;5032571;28;20045;-72
2022/06/14 04:10:05;;;;;;;4.68;3.67;;;9.40;99.90;;;;;;5032164;28;20044;-72
2022/06/14 04:12:50;;;;;;;6.43;3.50;;;9.40;99.90;;;;;;5031899;28;20124;-73
2022/06/14 04:15:33;;;;;;;7.13;3.92;;;9.50;99.90;;;;;;5047767;28;20044;-72
2022/06/14 04:18:35;;;;;;;3.97;3.10;;;9.60;99.90;;;;;;5032971;28;20029;-73
2022/06/14 04:21:16;;;;;;;3.63;2.60;;;10.40;99.90;;;;;;5032625;28;20041;-72
2022/06/14 04:24:20;;;;;;;4.55;2.47;;;11.70;99.90;;;;;;5031779;28;20040;-72
2022/06/14 04:26:55;;;;;;;7.05;2.55;;;12.90;99.90;;;;;;5032220;28;20056;-73
2022/06/14 04:29:36;;;;;;;4.32;2.35;;;14.40;99.90;;;;;;5043721;28;20048;-74
2022/06/14 04:32:13;;;;;;;3.40;1.92;;;15.40;94.30;;;;;;5031802;28;20041;-72
2022/06/14 04:34:46;;;;;;;2.80;1.63;;;16.30;89.20;;;;;;5051255;28;20033;-74
2022/06/14 04:37:30;;;;;;;5.78;1.85;;;16.80;83.90;;;;;;5030878;28;20042;-72
2022/06/14 04:40:01;;;;;;;4.00;1.60;;;17.30;80.40;;;;;;5049708;28;20064;-72
2022/06/14 04:42:38;;;;;;;4.43;1.85;;;17.60;79.50;;;;;;5036060;28;20042;-72
2022/06/14 04:45:40;;;;;;;3.22;1.88;;;18.10;76.60;;;;;;5037993;28;20033;-72
2022/06/14 04:48:13;;;;;;;5.68;1.67;;;18.70;72.50;;;;;;5043529;28;20029;-72
2022/06/14 04:50:52;;;;;;;3.95;1.73;;;18.30;71.80;;;;;;5034609;28;20040;-72
2022/06/14 04:53:28;;;;;;;8.05;2.33;;;18.50;73.30;;;;;;5032154;28;20044;-72
2022/06/14 04:56:14;;;;;;;2.65;1.75;;;18.90;69.40;;;;;;5031495;28;20037;-72
2022/06/14 04:58:51;;;;;;;4.20;1.55;;;19.40;69.50;;;;;;5035623;28;20036;-72
2022/06/14 05:01:32;;;;;;;6.15;2.17;;;20.20;67.20;;;;;;5036176;28;20025;-74
2022/06/14 05:04:08;;;;;;;5.22;2.42;;;20.80;63.70;;;;;;5036326;28;20041;-74
2022/06/14 05:06:40;;;;;;;3.65;1.70;;;20.70;62.90;;;;;;5046316;28;20028;-73
2022/06/14 05:09:12;;;;;;;3.90;1.95;;;19.40;66.30;;;;;;5036777;28;20046;-73
2022/06/14 05:12:03;;;;;;;6.60;1.77;;;19.20;67.80;;;;;;5035852;28;20037;-71
2022/06/14 05:14:43;;;;;;;5.55;1.70;;;19.50;66.40;;;;;;5046704;28;20469;-73
2022/06/14 05:17:24;;;;;;;2.65;1.30;;;18.70;69.20;;;;;;5041238;28;20044;-73
2022/06/14 05:20:12;;;;;;;5.88;1.48;;;18.10;70.10;;;;;;5040324;28;20052;-73
2022/06/14 05:22:53;;;;;;;3.53;1.52;;;17.60;71.60;;;;;;5043441;28;20037;-72
2022/06/14 05:25:20;;;;;;;5.55;1.95;;;18.00;71.90;;;;;;5041903;28;20029;-72
2022/06/14 05:28:07;;;;;;;2.90;1.27;;;18.90;68.20;;;;;;5050300;28;20037;-72
2022/06/14 05:31:15;;;;;;;5.60;1.50;;;19.90;65.20;;;;;;5036689;28;20131;-73
2022/06/14 05:33:55;;;;;;;8.55;1.52;;;20.50;63.70;;;;;;5030217;28;20056;-71
2022/06/14 05:36:29;;;;;;;5.03;1.30;;;19.80;63.60;;;;;;5035821;28;20025;-72
2022/06/14 05:39:27;;;;;;;4.85;1.80;;;18.90;66.20;;;;;;5035076;28;20390;-72
2022/06/14 05:42:13;;;;;;;2.13;1.10;;;18.70;66.70;;;;;;5033447;28;20041;-72
2022/06/14 05:44:44;;;;;;;2.88;1.20;;;18.90;66.50;;;;;;5034765;28;20041;-72
2022/06/14 05:47:16;;;;;;;9.73;2.60;;;18.90;66.80;;;;;;5035854;28;20049;-72
2022/06/14 05:49:52;;;;;;;4.55;1.75;;;19.10;66.10;;;;;;5044251;28;20466;-71
2022/06/14 05:52:30;;;;;;;2.30;1.10;;;19.00;67.60;;;;;;5035294;28;20044;-73
2022/06/14 05:55:17;;;;;;;2.97;1.17;;;20.00;63.90;;;;;;5034981;28;20463;-73
2022/06/14 05:57:47;;;;;;;4.03;1.42;;;21.20;61.50;;;;;;5038681;28;20505;-73
2022/06/14 06:00:30;;;;;;;4.38;1.55;;;21.30;60.40;;;;;;5045653;28;20391;-73
2022/06/14 06:03:10;;;;;;;8.82;1.35;;;22.00;59.40;;;;;;5042675;28;20033;-73
2022/06/14 06:05:40;;;;;;;7.05;1.33;;;20.80;61.10;;;;;;5039647;28;20475;-73
2022/06/14 06:08:18;;;;;;;4.50;1.25;;;20.90;60.80;;;;;;5034950;28;20036;-73
2022/06/14 06:10:48;;;;;;;5.07;1.60;;;20.70;61.50;;;;;;5038824;28;20374;-72
2022/06/14 06:13:17;;;;;;;;;;;20.60;62.00;;;;;;5051835;28;20053;-72
2022/06/14 06:15:53;;;;;;;4.43;1.10;;;20.70;61.80;;;;;;5034246;28;19920;-71
2022/06/14 06:18:41;;;;;;;3.22;1.48;;;21.10;60.80;;;;;;5034633;28;20037;-72
2022/06/14 06:21:16;;;;;;;4.53;1.23;;;21.30;60.00;;;;;;5033617;28;20060;-72
2022/06/14 06:23:49;;;;;;;3.30;1.48;;;21.10;61.50;;;;;;5034098;28;20068;-72
2022/06/14 06:26:18;;;;;;;4.22;1.33;;;20.70;60.50;;;;;;5034449;28;20033;-72
2022/06/14 06:28:51;;;;;;;5.30;1.40;;;20.80;59.70;;;;;;5034002;28;20025;-72
2022/06/14 06:31:26;;;;;;;3.42;1.67;;;19.70;62.40;;;;;;5034529;28;20037;-71
2022/06/14 06:33:54;;;;;;;4.28;0.77;;;20.20;61.40;;;;;;5044941;28;20287;-72
2022/06/14 06:36:45;;;;;;;6.22;1.45;;;19.80;62.40;;;;;;5038847;28;20033;-72
2022/06/14 06:39:34;;;;;;;5.28;1.02;;;19.90;61.50;;;;;;5034072;28;20040;-72
2022/06/14 06:42:16;;;;;;;4.22;1.30;;;20.30;60.80;;;;;;5034381;28;20029;-72
2022/06/14 06:44:50;;;;;;;4.38;1.15;;;21.00;61.70;;;;;;5049482;28;20052;-72
2022/06/14 06:47:37;;;;;;;2.97;1.02;;;22.20;57.40;;;;;;5043443;28;20040;-72
2022/06/14 06:50:21;;;;;;;4.97;1.35;;;21.80;58.20;;;;;;5040038;28;20021;-71
2022/06/14 06:53:10;;;;;;;6.03;1.40;;;22.20;57.00;;;;;;5033805;28;20040;-72
2022/06/14 06:56:06;;;;;;;5.22;1.35;;;21.10;58.20;;;;;;5050169;28;20522;-72
2022/06/14 06:58:59;;;;;;;3.83;1.40;;;20.90;59.30;;;;;;5032954;28;20037;-72
2022/06/14 07:01:47;;;;;;;3.03;1.80;;;21.00;58.90;;;;;;5048746;28;20034;-72
2022/06/14 07:04:21;;;;;;;7.93;1.53;;;21.00;58.60;;;;;;5032235;28;20060;-72
2022/06/14 07:06:53;;;;;;;2.75;1.00;;;21.80;57.80;;;;;;5033681;28;20387;-73
2022/06/14 07:09:41;;;;;;;3.55;1.30;;;21.80;57.50;;;;;;5033069;28;20037;-73
2022/06/14 07:12:15;;;;;;;5.60;1.92;;;22.30;55.30;;;;;;5046250;28;20028;-74
2022/06/14 07:14:54;;;;;;;3.05;1.08;;;22.70;53.90;;;;;;5041444;28;20041;-73
2022/06/14 07:17:38;;;;;;;3.47;1.48;;;23.20;53.40;;;;;;5033857;28;20045;-72
2022/06/14 07:20:36;;;;;;;2.35;0.93;;;22.90;53.80;;;;;;5047002;28;20041;-73
2022/06/14 07:23:15;;;;;;;3.53;1.13;;;22.40;54.70;;;;;;5028406;28;20041;-73
2022/06/14 07:25:52;;;;;;;6.45;1.73;;;22.80;56.10;;;;;;5033017;28;20041;-73
2022/06/14 07:28:43;;;;;;;4.40;1.30;;;24.30;51.80;;;;;;5033344;28;20025;-73
2022/06/14 07:31:22;;;;;;;3.30;1.75;;;23.10;53.60;;;;;;5034880;28;20036;-75
2022/06/14 07:33:48;;;;;;;;;;;24.10;53.20;;;;;;5043860;28;20025;-72
2022/06/14 07:36:40;;;;;;;5.25;1.40;;;24.30;51.80;;;;;;5033249;28;19909;-73
2022/06/14 07:39:38;;;;;;;7.28;1.42;;;23.20;53.40;;;;;;5043536;28;20498;-72
2022/06/14 07:42:16;;;;;;;5.38;1.42;;;23.50;53.00;;;;;;5024028;28;20046;-73
2022/06/14 07:45:03;;;;;;;4.57;1.33;;;23.20;52.80;;;;;;5045745;28;20037;-73
2022/06/14 07:47:35;;;;;;;2.35;1.10;;;22.20;55.00;;;;;;5032761;28;20562;-73
2022/06/14 07:50:08;;;;;;;5.35;1.35;;;22.20;55.10;;;;;;5031771;28;20029;-73
2022/06/14 07:52:44;;;;;;;3.33;1.48;;;23.50;52.70;;;;;;5040524;28;20034;-73
2022/06/14 07:55:22;;;;;;;2.60;1.45;;;24.70;50.60;;;;;;5032659;28;20029;-73
2022/06/14 07:57:53;;;;;;;2.88;1.00;;;24.30;51.10;;;;;;5032332;28;20485;-72
2022/06/14 08:03:22;;;;;;;5.43;1.38;;;25.30;52.40;;;;;;5032387;28;20049;-73
2022/06/14 08:05:50;;;;;;;2.88;1.00;;;26.10;47.90;;;;;;5032404;28;20037;-72
2022/06/14 08:08:30;;;;;;;2.88;1.67;;;25.50;50.30;;;;;;5047641;28;20038;-72
2022/06/14 08:10:59;;;;;;;;;;;25.70;46.70;;;;;;5032566;28;20038;-72
2022/06/14 08:13:32;;;;;;;2.10;1.25;;;24.70;48.20;;;;;;5037585;28;19920;-71
2022/06/14 08:16:00;;;;;;;8.50;1.60;;;23.80;48.40;;;;;;5038385;28;20041;-73
2022/06/14 08:18:37;;;;;;;3.70;0.90;;;22.90;50.00;;;;;;5032823;28;20375;-74
2022/06/14 08:21:11;;;;;;;3.30;1.35;;;23.00;49.50;;;;;;5041558;28;20036;-75
2022/06/14 08:23:48;;;;;;;3.28;1.10;;;23.80;49.10;;;;;;5032427;28;20064;-74
2022/06/14 08:26:56;;;;;;;3.13;0.98;;;24.70;49.30;;;;;;5032156;28;20037;-74
2022/06/14 08:29:22;;;;;;;4.00;1.00;;;25.80;49.30;;;;;;5032277;28;20043;-73
2022/06/14 08:31:54;;;;;;;2.47;1.20;;;26.30;47.60;;;;;;5034893;28;20029;-72
2022/06/14 08:34:34;;;;;;;3.45;1.40;;;25.30;46.60;;;;;;5038831;28;20025;-72
2022/06/14 08:37:09;;;;;;;3.35;1.00;;;24.30;48.80;;;;;;5031763;28;20034;-73
2022/06/14 08:39:50;;;;;;;4.53;1.42;;;23.40;49.80;;;;;;5032134;28;20036;-72
2022/06/14 08:42:34;;;;;;;3.13;1.15;;;23.90;48.80;;;;;;5032347;28;20044;-71
2022/06/14 08:45:15;;;;;;;2.42;1.10;;;23.60;48.70;;;;;;5031618;28;20033;-72
2022/06/14 08:48:04;;;;;;;6.28;2.08;;;23.20;49.00;;;;;;5031453;28;20025;-72
2022/06/14 08:51:23;;;;;;;3.53;1.13;;;23.30;49.30;;;;;;5031072;28;20049;-71
2022/06/14 08:54:16;;;;;;;5.72;2.15;;;23.40;51.20;;;;;;5031823;28;20044;-72
2022/06/14 08:57:03;;;;;;;5.07;1.58;;;25.20;47.20;;;;;;5031980;28;20029;-74
2022/06/14 08:59:59;;;;;;;6.38;1.70;;;24.80;47.60;;;;;;5032361;28;20034;-71
2022/06/14 09:02:42;;;;;;;3.85;1.10;;;24.40;47.20;;;;;;5032031;28;20058;-74
2022/06/14 09:05:31;;;;;;;5.07;1.40;;;23.80;47.90;;;;;;5047590;28;20057;-73
2022/06/14 09:08:45;;;;;;;3.70;1.17;;;24.70;48.70;;;;;;5029910;28;20530;-73
2022/06/14 09:11:45;;;;;;;5.88;2.25;;;24.60;47.30;;;;;;5031728;28;20037;-73
2022/06/14 09:14:32;;;;;;;3.70;1.70;;;24.60;47.50;;;;;;5032052;28;20069;-73
2022/06/14 09:17:17;;;;;;;3.08;1.27;;;24.20;46.60;;;;;;5031223;28;20030;-73
2022/06/14 09:20:03;;;;;;;2.35;1.13;;;24.30;48.10;;;;;;5040798;28;20029;-73
2022/06/14 09:22:54;;;;;;;6.00;1.35;;;24.70;46.90;;;;;;5036861;28;20025;-73
2022/06/14 09:25:46;;;;;;;2.97;1.40;;;24.50;47.80;;;;;;5037955;28;20025;-73
2022/06/14 09:28:46;;;;;;;4.03;1.52;;;25.00;47.20;;;;;;5034601;28;20450;-73
2022/06/14 09:31:50;;;;;;;5.25;1.83;;;25.50;46.00;;;;;;5031538;28;20414;-73
2022/06/14 09:34:19;;;;;;;3.33;1.48;;;26.30;43.90;;;;;;5042151;28;20044;-71
2022/06/14 09:37:06;;;;;;;3.28;1.45;;;26.90;45.40;;;;;;5036371;28;20043;-71
2022/06/14 09:39:52;;;;;;;3.97;1.20;;;27.80;42.90;;;;;;5041244;28;20144;-72
2022/06/14 09:42:34;;;;;;;4.38;1.65;;;26.20;43.10;;;;;;5033055;28;20041;-73
2022/06/14 09:45:09;;;;;;;2.97;1.30;;;26.00;43.70;;;;;;5033608;28;20079;-73
2022/06/14 09:47:53;;;;;;;4.72;1.30;;;26.30;43.50;;;;;;5035467;28;20026;-73
2022/06/14 09:50:58;;;;;;;2.63;1.20;;;26.40;43.30;;;;;;5035131;28;20045;-72
2022/06/14 09:53:42;;;;;;;3.78;1.50;;;25.00;44.20;;;;;;5052317;28;20037;-73
2022/06/14 09:56:15;;;;;;;1.52;1.20;;;25.00;45.00;;;;;;5036296;28;20045;-72
2022/06/14 09:58:59;;;;;;;4.78;1.83;;;25.30;46.20;;;;;;5034004;28;20033;-75
2022/06/14 10:01:39;;;;;;;1.67;1.20;;;26.40;43.40;;;;;;5049024;28;20087;-73
2022/06/14 10:04:43;;;;;;;4.63;2.00;;;25.90;45.50;;;;;;5036021;28;20398;-72
2022/06/14 10:07:39;;;;;;;5.88;1.50;;;26.20;45.10;;;;;;5034894;28;20037;-72
2022/06/14 10:10:26;;;;;;;3.95;1.30;;;27.20;44.10;;;;;;5032740;28;20046;-72
2022/06/14 10:13:14;;;;;;;3.80;1.58;;;27.30;43.70;;;;;;5034531;28;20061;-72
2022/06/14 10:16:05;;;;;;;2.50;1.40;;;26.70;44.20;;;;;;5049824;28;20029;-74
2022/06/14 10:18:34;;;;;;;3.45;1.40;;;26.90;44.10;;;;;;5034622;28;20049;-72
2022/06/14 10:21:11;;;;;;;3.10;1.42;;;26.60;44.90;;;;;;5048513;28;20056;-75
2022/06/14 10:23:49;;;;;;;3.42;1.52;;;26.00;44.40;;;;;;5038051;28;20036;-73
2022/06/14 10:29:50;;;;;;;4.90;1.60;;;24.80;45.50;;;;;;5031995;28;20133;-74
2022/06/14 10:32:30;;;;;;;3.63;1.70;;;24.40;44.20;;;;;;5033440;28;20475;-73
2022/06/14 10:35:04;;;;;;;4.30;1.20;;;24.60;44.40;;;;;;5033844;28;20361;-73
2022/06/14 10:37:55;;;;;;;3.95;1.58;;;24.80;44.70;;;;;;5034514;28;20371;-74
2022/06/14 10:40:44;;;;;;;3.65;1.38;;;24.70;44.30;;;;;;5034246;28;20029;-73
2022/06/14 10:43:45;;;;;;;3.35;1.67;;;24.90;44.70;;;;;;5044484;28;20042;-74
2022/06/14 10:46:28;;;;;;;2.85;1.40;;;24.80;44.60;;;;;;5049469;28;20041;-74
2022/06/14 10:49:00;;;;;;;4.43;2.80;;;24.90;46.50;;;;;;5045749;28;20033;-73
2022/06/14 10:51:30;;;;;;;4.03;1.45;;;25.10;46.00;;;;;;5048157;28;20029;-73
2022/06/14 10:54:17;;;;;;;5.20;1.20;;;25.30;45.90;;;;;;5034379;28;20036;-73
2022/06/14 10:56:52;;;;;;;4.97;1.92;;;25.90;45.40;;;;;;5037890;28;20030;-75
2022/06/14 10:59:30;;;;;;;2.95;1.60;;;24.70;43.80;;;;;;5038090;28;20025;-73
2022/06/14 11:02:02;;;;;;;5.65;1.70;;;24.70;44.90;;;;;;5038046;28;20040;-73
2022/06/14 11:04:41;;;;;;;6.35;1.60;;;24.80;44.50;;;;;;5033694;28;20041;-72
2022/06/14 11:07:41;;;;;;;4.03;1.10;;;24.80;44.30;;;;;;5033609;28;20029;-73
2022/06/14 11:10:25;;;;;;;5.28;1.35;;;24.60;44.10;;;;;;5033773;28;20292;-73
2022/06/14 11:12:52;;;;;;;4.25;1.58;;;24.70;42.90;;;;;;5032831;28;20060;-72
2022/06/14 11:15:44;;;;;;;4.22;1.17;;;24.60;42.90;;;;;;5033444;28;20030;-74
2022/06/14 11:18:34;;;;;;;4.88;1.40;;;24.80;43.20;;;;;;5047366;28;20033;-74
2022/06/14 11:21:31;;;;;;;2.83;1.17;;;24.10;43.50;;;;;;5032154;28;20049;-72
2022/06/14 11:24:15;;;;;;;2.97;1.13;;;24.70;43.20;;;;;;5033045;28;20038;-72
2022/06/14 11:26:59;;;;;;;3.78;1.60;;;24.70;42.90;;;;;;5033219;28;20048;-73
2022/06/14 11:29:41;;;;;;;2.67;1.00;;;25.30;43.70;;;;;;5035004;28;20037;-73
2022/06/14 11:32:31;;;;;;;3.92;1.25;;;25.10;42.80;;;;;;5048883;28;20037;-74
2022/06/14 11:35:00;;;;;;;4.00;1.27;;;24.60;42.90;;;;;;5039143;28;20033;-75
2022/06/14 11:37:39;;;;;;;3.70;1.20;;;24.40;43.10;;;;;;5043682;28;20033;-75
2022/06/14 11:40:15;;;;;;;4.43;1.60;;;24.60;43.50;;;;;;5032682;28;20030;-73
2022/06/14 11:42:51;;;;;;;4.72;1.48;;;24.10;43.50;;;;;;5032866;28;20041;-75
2022/06/14 11:45:40;;;;;;;3.92;1.30;;;24.20;42.70;;;;;;5033510;28;20044;-74
2022/06/14 11:48:16;;;;;;;2.35;1.20;;;24.70;44.20;;;;;;5048212;28;20041;-75
2022/06/14 11:50:54;;;;;;;3.67;1.52;;;25.20;42.10;;;;;;5032585;28;20522;-75
2022/06/14 11:53:46;;;;;;;2.65;1.38;;;25.10;41.40;;;;;;5033122;28;20070;-73
2022/06/14 11:56:38;;;;;;;3.92;1.30;;;25.30;40.40;;;;;;5047580;28;20039;-72
2022/06/14 11:59:36;;;;;;;2.95;1.10;;;25.60;40.70;;;;;;5030706;28;20096;-72
2022/06/14 12:02:15;;;;;;;1.70;0.70;;;25.80;38.90;;;;;;5033372;28;20399;-72
2022/06/14 12:05:04;;;;;;;3.47;1.20;;;25.40;39.40;;;;;;5038271;28;20037;-73
2022/06/14 12:07:38;;;;;;;4.80;1.42;;;24.70;39.10;;;;;;5032608;28;20102;-73
2022/06/14 12:10:19;;;;;;;4.13;1.52;;;24.90;39.70;;;;;;5031389;28;20029;-75
2022/06/14 12:12:48;;;;;;;3.00;1.15;;;25.20;38.90;;;;;;5031991;28;20049;-74
2022/06/14 12:15:24;;;;;;;4.40;1.38;;;25.30;39.50;;;;;;5043747;28;20040;-73
2022/06/14 12:17:54;;;;;;;4.15;1.35;;;25.10;39.70;;;;;;5032132;28;20040;-72
2022/06/14 12:20:23;;;;;;;2.40;0.98;;;25.40;39.50;;;;;;5039329;28;20029;-73
2022/06/14 12:23:27;;;;;;;3.63;1.77;;;25.50;39.40;;;;;;5033255;28;20040;-71
2022/06/14 12:26:39;;;;;;;5.43;2.35;;;25.40;38.00;;;;;;5045954;28;20053;-75
2022/06/14 12:29:08;;;;;;;3.13;0.85;;;25.30;38.50;;;;;;5049440;28;20402;-73
2022/06/14 12:32:01;;;;;;;2.97;1.50;;;25.50;39.00;;;;;;5033284;28;20037;-72
2022/06/14 12:34:41;;;;;;;4.15;1.20;;;25.70;38.70;;;;;;5039182;28;20029;-72
2022/06/14 12:37:36;;;;;;;2.85;1.15;;;26.10;39.00;;;;;;5037826;28;20104;-72
2022/06/14 12:40:29;;;;;;;3.55;1.20;;;26.10;38.80;;;;;;5031888;28;20235;-73
2022/06/14 12:43:23;;;;;;;3.58;1.33;;;26.10;39.10;;;;;;5033474;28;20422;-73
2022/06/14 12:45:55;;;;;;;3.60;1.40;;;26.10;39.10;;;;;;5032166;28;20042;-74
2022/06/14 12:48:31;;;;;;;4.60;1.77;;;26.10;39.40;;;;;;5031783;28;20037;-74
2022/06/14 12:51:18;;;;;;;4.05;1.60;;;26.10;39.60;;;;;;5030526;28;20490;-73
2022/06/14 12:54:09;;;;;;;2.15;1.13;;;25.80;39.70;;;;;;5031577;28;20053;-73
2022/06/14 12:56:56;;;;;;;3.70;1.38;;;25.90;40.20;;;;;;5031942;28;20029;-73
2022/06/14 12:59:56;;;;;;;2.65;1.30;;;26.00;39.30;;;;;;5041531;28;20032;-73
2022/06/14 13:02:42;;;;;;;3.85;1.52;;;26.50;39.50;;;;;;5032257;28;20044;-74
2022/06/14 13:05:09;;;;;;;6.53;1.58;;;26.50;40.00;;;;;;5031618;28;20045;-75
2022/06/14 13:07:48;;;;;;;2.40;1.35;;;26.80;39.40;;;;;;5032464;28;20096;-74
2022/06/14 13:10:50;;;;;;;2.33;1.15;;;26.80;39.70;;;;;;5032180;28;20476;-72
2022/06/14 13:13:28;;;;;;;3.47;1.70;;;27.20;38.70;;;;;;5030519;28;20483;-73
2022/06/14 13:16:01;;;;;;;3.60;1.00;;;26.80;39.20;;;;;;5031765;28;20045;-73
2022/06/14 13:18:53;;;;;;;2.50;1.48;;;26.60;39.20;;;;;;5045909;28;20033;-73
2022/06/14 13:21:39;;;;;;;5.00;1.30;;;26.40;40.30;;;;;;5041354;28;20033;-73
2022/06/14 13:24:29;;;;;;;2.72;1.25;;;26.90;40.30;;;;;;5035037;28;20046;-73
2022/06/14 13:27:01;;;;;;;;;;;27.40;40.00;;;;;;5035558;28;20479;-73
2022/06/14 13:29:37;;;;;;;3.20;1.65;;;27.30;40.20;;;;;;5035635;28;19909;-74
2022/06/14 13:32:21;;;;;;;4.20;1.58;;;26.90;39.50;;;;;;5035468;28;20036;-74
2022/06/14 13:34:50;;;;;;;4.53;1.23;;;26.60;39.40;;;;;;5035169;28;20045;-74
2022/06/14 13:37:29;;;;;;;3.83;1.05;;;27.20;40.00;;;;;;5034053;28;20048;-71
2022/06/14 13:40:30;;;;;;;4.18;1.40;;;27.50;39.10;;;;;;5035246;28;20033;-72
2022/06/14 13:43:12;;;;;;;4.38;1.35;;;27.50;40.40;;;;;;5035232;28;20406;-71
2022/06/14 13:45:45;;;;;;;4.65;1.63;;;26.90;39.20;;;;;;5035373;28;20502;-72
2022/06/14 13:48:44;;;;;;;4.75;1.33;;;26.60;38.90;;;;;;5034431;28;20044;-73
2022/06/14 13:51:52;;;;;;;4.78;1.67;;;26.60;39.00;;;;;;5034902;28;20471;-72
2022/06/14 13:54:51;;;;;;;2.38;0.85;;;26.80;39.10;;;;;;5033949;28;20037;-72
2022/06/14 13:57:43;;;;;;;2.30;1.13;;;27.20;38.70;;;;;;5035422;28;20045;-73
2022/06/14 14:00:24;;;;;;;2.47;1.35;;;27.70;39.80;;;;;;5034935;28;20033;-72
2022/06/14 14:03:01;;;;;;;4.97;0.90;;;27.90;39.10;;;;;;5034496;28;20044;-74
2022/06/14 14:05:36;;;;;;;3.35;1.42;;;27.40;39.20;;;;;;5034907;28;20034;-73
2022/06/14 14:08:33;;;;;;;3.38;1.63;;;27.00;39.40;;;;;;5034735;28;20041;-73